sensor_id;sensor_type;location;lat;lon;timestamp;temperature;humidity
8736;DHT22;4404;49.308;12.178;2023-12-20T00:01:36;12.50;85.10
8736;DHT22;4404;49.308;12.178;2023-12-20T00:03:37;12.50;85.20
8736;DHT22;4404;49.308;12.178;2023-12-20T00:05:39;12.50;85.20
8736;DHT22;4404;49.308;12.178;2023-12-20T00:07:41;12.50;85.20
8736;DHT22;4404;49.308;12.178;2023-12-20T00:09:45;12.50;85.30
8736;DHT22;4404;49.308;12.178;2023-12-20T00:11:46;12.50;85.40
8736;DHT22;4404;49.308;12.178;2023-12-20T00:13:47;12.50;85.40
8736;DHT22;4404;49.308;12.178;2023-12-20T00:15:49;12.50;85.50
8736;DHT22;4404;49.308;12.178;2023-12-20T00:17:51;12.50;85.50
8736;DHT22;4404;49.308;12.178;2023-12-20T00:19:53;12.50;85.40
8736;DHT22;4404;49.308;12.178;2023-12-20T00:21:55;12.50;85.50
8736;DHT22;4404;49.308;12.178;2023-12-20T00:23:57;12.50;85.50
8736;DHT22;4404;49.308;12.178;2023-12-20T00:26:00;12.50;85.50
8736;DHT22;4404;49.308;12.178;2023-12-20T00:28:03;12.50;85.50
8736;DHT22;4404;49.308;12.178;2023-12-20T00:30:06;12.50;85.50
8736;DHT22;4404;49.308;12.178;2023-12-20T00:32:08;12.50;85.40
8736;DHT22;4404;49.308;12.178;2023-12-20T00:34:10;12.50;85.40
8736;DHT22;4404;49.308;12.178;2023-12-20T00:36:12;12.50;85.50
8736;DHT22;4404;49.308;12.178;2023-12-20T00:38:13;12.50;85.50
8736;DHT22;4404;49.308;12.178;2023-12-20T00:40:15;12.50;85.50
8736;DHT22;4404;49.308;12.178;2023-12-20T00:42:18;12.50;85.50
8736;DHT22;4404;49.308;12.178;2023-12-20T00:44:20;12.50;85.40
8736;DHT22;4404;49.308;12.178;2023-12-20T00:46:22;12.50;85.40
8736;DHT22;4404;49.308;12.178;2023-12-20T00:48:24;12.50;85.40
8736;DHT22;4404;49.308;12.178;2023-12-20T00:50:27;12.50;85.40
8736;DHT22;4404;49.308;12.178;2023-12-20T00:52:29;12.50;85.40
8736;DHT22;4404;49.308;12.178;2023-12-20T00:54:31;12.50;85.50
8736;DHT22;4404;49.308;12.178;2023-12-20T00:56:33;12.50;85.50
8736;DHT22;4404;49.308;12.178;2023-12-20T00:58:36;12.50;85.50
8736;DHT22;4404;49.308;12.178;2023-12-20T01:00:38;12.50;85.50
8736;DHT22;4404;49.308;12.178;2023-12-20T01:02:42;12.50;85.50
8736;DHT22;4404;49.308;12.178;2023-12-20T01:04:43;12.50;85.50
8736;DHT22;4404;49.308;12.178;2023-12-20T01:06:45;12.50;85.50
8736;DHT22;4404;49.308;12.178;2023-12-20T01:08:47;12.50;85.50
8736;DHT22;4404;49.308;12.178;2023-12-20T01:10:48;12.50;85.50
8736;DHT22;4404;49.308;12.178;2023-12-20T01:12:50;12.50;85.50
8736;DHT22;4404;49.308;12.178;2023-12-20T01:14:53;12.50;85.50
8736;DHT22;4404;49.308;12.178;2023-12-20T01:16:55;12.50;85.50
8736;DHT22;4404;49.308;12.178;2023-12-20T01:18:57;12.50;85.50
8736;DHT22;4404;49.308;12.178;2023-12-20T01:21:01;12.50;85.50
8736;DHT22;4404;49.308;12.178;2023-12-20T01:23:03;12.50;85.50
8736;DHT22;4404;49.308;12.178;2023-12-20T01:25:06;12.50;85.50
8736;DHT22;4404;49.308;12.178;2023-12-20T01:27:07;12.50;85.50
8736;DHT22;4404;49.308;12.178;2023-12-20T01:29:09;12.50;85.70
8736;DHT22;4404;49.308;12.178;2023-12-20T01:31:13;12.50;85.60
8736;DHT22;4404;49.308;12.178;2023-12-20T01:33:15;12.50;85.60
8736;DHT22;4404;49.308;12.178;2023-12-20T01:35:16;12.50;85.50
8736;DHT22;4404;49.308;12.178;2023-12-20T01:37:18;12.50;85.60
8736;DHT22;4404;49.308;12.178;2023-12-20T01:39:20;12.50;85.70
8736;DHT22;4404;49.308;12.178;2023-12-20T01:41:22;12.50;85.70
8736;DHT22;4404;49.308;12.178;2023-12-20T01:43:24;12.50;85.70
8736;DHT22;4404;49.308;12.178;2023-12-20T01:45:26;12.50;85.70
8736;DHT22;4404;49.308;12.178;2023-12-20T01:47:29;12.50;85.70
8736;DHT22;4404;49.308;12.178;2023-12-20T01:49:31;12.50;85.90
8736;DHT22;4404;49.308;12.178;2023-12-20T01:51:34;12.50;85.70
8736;DHT22;4404;49.308;12.178;2023-12-20T01:53:36;12.50;85.70
8736;DHT22;4404;49.308;12.178;2023-12-20T01:55:40;12.50;85.90
8736;DHT22;4404;49.308;12.178;2023-12-20T01:57:43;12.50;86.00
8736;DHT22;4404;49.308;12.178;2023-12-20T01:59:45;12.50;86.00
8736;DHT22;4404;49.308;12.178;2023-12-20T02:01:47;12.50;86.10
8736;DHT22;4404;49.308;12.178;2023-12-20T02:03:51;12.50;86.10
8736;DHT22;4404;49.308;12.178;2023-12-20T02:05:53;12.50;86.20
8736;DHT22;4404;49.308;12.178;2023-12-20T02:07:55;12.50;86.20
8736;DHT22;4404;49.308;12.178;2023-12-20T02:09:56;12.50;86.20
8736;DHT22;4404;49.308;12.178;2023-12-20T02:11:59;12.50;86.20
8736;DHT22;4404;49.308;12.178;2023-12-20T02:14:01;12.50;86.20
8736;DHT22;4404;49.308;12.178;2023-12-20T02:16:03;12.50;86.20
8736;DHT22;4404;49.308;12.178;2023-12-20T02:18:07;12.50;86.30
8736;DHT22;4404;49.308;12.178;2023-12-20T02:20:10;12.50;86.30
8736;DHT22;4404;49.308;12.178;2023-12-20T02:22:14;12.50;86.40
8736;DHT22;4404;49.308;12.178;2023-12-20T02:24:17;12.50;86.40
8736;DHT22;4404;49.308;12.178;2023-12-20T02:26:19;12.60;86.50
8736;DHT22;4404;49.308;12.178;2023-12-20T02:28:21;12.50;86.60
8736;DHT22;4404;49.308;12.178;2023-12-20T02:30:24;12.50;86.70
8736;DHT22;4404;49.308;12.178;2023-12-20T02:32:26;12.50;86.70
8736;DHT22;4404;49.308;12.178;2023-12-20T02:34:27;12.50;86.70
8736;DHT22;4404;49.308;12.178;2023-12-20T02:36:29;12.50;86.70
8736;DHT22;4404;49.308;12.178;2023-12-20T02:38:32;12.50;86.70
8736;DHT22;4404;49.308;12.178;2023-12-20T02:40:34;12.50;86.70
8736;DHT22;4404;49.308;12.178;2023-12-20T02:42:36;12.50;87.00
8736;DHT22;4404;49.308;12.178;2023-12-20T02:44:38;12.50;87.00
8736;DHT22;4404;49.308;12.178;2023-12-20T02:46:39;12.50;86.90
8736;DHT22;4404;49.308;12.178;2023-12-20T02:48:41;12.50;87.00
8736;DHT22;4404;49.308;12.178;2023-12-20T02:50:43;12.50;87.00
8736;DHT22;4404;49.308;12.178;2023-12-20T02:52:45;12.50;87.00
8736;DHT22;4404;49.308;12.178;2023-12-20T02:54:48;12.50;87.10
8736;DHT22;4404;49.308;12.178;2023-12-20T02:56:50;12.50;87.40
8736;DHT22;4404;49.308;12.178;2023-12-20T02:58:52;12.50;87.50
8736;DHT22;4404;49.308;12.178;2023-12-20T03:00:54;12.50;87.20
8736;DHT22;4404;49.308;12.178;2023-12-20T03:02:56;12.50;87.30
8736;DHT22;4404;49.308;12.178;2023-12-20T03:04:57;12.50;87.40
8736;DHT22;4404;49.308;12.178;2023-12-20T03:07:00;12.50;87.40
8736;DHT22;4404;49.308;12.178;2023-12-20T03:09:03;12.50;87.50
8736;DHT22;4404;49.308;12.178;2023-12-20T03:11:06;12.50;87.60
8736;DHT22;4404;49.308;12.178;2023-12-20T03:13:08;12.50;87.70
8736;DHT22;4404;49.308;12.178;2023-12-20T03:15:10;12.50;87.70
8736;DHT22;4404;49.308;12.178;2023-12-20T03:17:13;12.50;87.70
8736;DHT22;4404;49.308;12.178;2023-12-20T03:19:15;12.50;87.70
8736;DHT22;4404;49.308;12.178;2023-12-20T03:21:16;12.50;87.90
8736;DHT22;4404;49.308;12.178;2023-12-20T03:23:18;12.50;87.90
8736;DHT22;4404;49.308;12.178;2023-12-20T03:25:20;12.50;87.90
8736;DHT22;4404;49.308;12.178;2023-12-20T03:27:24;12.50;87.80
8736;DHT22;4404;49.308;12.178;2023-12-20T03:29:26;12.50;87.70
8736;DHT22;4404;49.308;12.178;2023-12-20T03:31:28;12.50;87.80
8736;DHT22;4404;49.308;12.178;2023-12-20T03:33:30;12.50;87.90
8736;DHT22;4404;49.308;12.178;2023-12-20T03:35:32;12.50;88.00
8736;DHT22;4404;49.308;12.178;2023-12-20T03:37:33;12.50;87.90
8736;DHT22;4404;49.308;12.178;2023-12-20T03:39:35;12.50;87.90
8736;DHT22;4404;49.308;12.178;2023-12-20T03:41:37;12.50;88.00
8736;DHT22;4404;49.308;12.178;2023-12-20T03:43:40;12.50;88.10
8736;DHT22;4404;49.308;12.178;2023-12-20T03:45:43;12.50;88.10
8736;DHT22;4404;49.308;12.178;2023-12-20T03:47:45;12.50;88.30
8736;DHT22;4404;49.308;12.178;2023-12-20T03:49:47;12.50;88.30
8736;DHT22;4404;49.308;12.178;2023-12-20T03:51:49;12.50;88.30
8736;DHT22;4404;49.308;12.178;2023-12-20T03:53:51;12.50;88.30
8736;DHT22;4404;49.308;12.178;2023-12-20T03:55:53;12.50;88.30
8736;DHT22;4404;49.308;12.178;2023-12-20T03:57:54;12.50;88.20
8736;DHT22;4404;49.308;12.178;2023-12-20T03:59:57;12.50;88.20
8736;DHT22;4404;49.308;12.178;2023-12-20T04:01:59;12.50;88.30
8736;DHT22;4404;49.308;12.178;2023-12-20T04:04:02;12.50;88.40
8736;DHT22;4404;49.308;12.178;2023-12-20T04:06:05;12.50;88.50
8736;DHT22;4404;49.308;12.178;2023-12-20T04:08:07;12.50;88.50
8736;DHT22;4404;49.308;12.178;2023-12-20T04:10:09;12.50;88.50
8736;DHT22;4404;49.308;12.178;2023-12-20T04:12:11;12.50;88.40
8736;DHT22;4404;49.308;12.178;2023-12-20T04:14:13;12.50;88.50
8736;DHT22;4404;49.308;12.178;2023-12-20T04:16:16;12.50;88.50
8736;DHT22;4404;49.308;12.178;2023-12-20T04:18:18;12.50;88.50
8736;DHT22;4404;49.308;12.178;2023-12-20T04:20:20;12.50;88.50
8736;DHT22;4404;49.308;12.178;2023-12-20T04:22:22;12.50;88.50
8736;DHT22;4404;49.308;12.178;2023-12-20T04:24:24;12.50;88.60
8736;DHT22;4404;49.308;12.178;2023-12-20T04:26:26;12.50;88.50
8736;DHT22;4404;49.308;12.178;2023-12-20T04:28:29;12.50;88.50
8736;DHT22;4404;49.308;12.178;2023-12-20T04:30:31;12.50;89.30
8736;DHT22;4404;49.308;12.178;2023-12-20T04:32:35;12.50;88.70
8736;DHT22;4404;49.308;12.178;2023-12-20T04:34:37;12.50;88.80
8736;DHT22;4404;49.308;12.178;2023-12-20T04:36:38;12.50;88.70
8736;DHT22;4404;49.308;12.178;2023-12-20T04:38:40;12.50;88.70
8736;DHT22;4404;49.308;12.178;2023-12-20T04:40:41;12.50;88.70
8736;DHT22;4404;49.308;12.178;2023-12-20T04:42:43;12.50;88.80
8736;DHT22;4404;49.308;12.178;2023-12-20T04:44:45;12.50;88.70
8736;DHT22;4404;49.308;12.178;2023-12-20T04:46:47;12.50;88.80
8736;DHT22;4404;49.308;12.178;2023-12-20T04:48:51;12.50;88.80
8736;DHT22;4404;49.308;12.178;2023-12-20T04:50:53;12.50;88.90
8736;DHT22;4404;49.308;12.178;2023-12-20T04:52:55;12.50;88.90
8736;DHT22;4404;49.308;12.178;2023-12-20T04:54:56;12.50;88.90
8736;DHT22;4404;49.308;12.178;2023-12-20T04:56:57;12.50;89.10
8736;DHT22;4404;49.308;12.178;2023-12-20T04:58:59;12.50;88.90
8736;DHT22;4404;49.308;12.178;2023-12-20T05:01:01;12.50;88.90
8736;DHT22;4404;49.308;12.178;2023-12-20T05:03:04;12.50;89.00
8736;DHT22;4404;49.308;12.178;2023-12-20T05:05:08;12.50;89.00
8736;DHT22;4404;49.308;12.178;2023-12-20T05:07:09;12.50;89.00
8736;DHT22;4404;49.308;12.178;2023-12-20T05:09:11;12.50;89.00
8736;DHT22;4404;49.308;12.178;2023-12-20T05:11:12;12.50;88.80
8736;DHT22;4404;49.308;12.178;2023-12-20T05:13:15;12.50;88.90
8736;DHT22;4404;49.308;12.178;2023-12-20T05:15:17;12.50;88.90
8736;DHT22;4404;49.308;12.178;2023-12-20T05:17:20;12.50;88.90
8736;DHT22;4404;49.308;12.178;2023-12-20T05:19:22;12.50;89.10
8736;DHT22;4404;49.308;12.178;2023-12-20T05:21:26;12.50;89.00
8736;DHT22;4404;49.308;12.178;2023-12-20T05:23:27;12.50;89.00
8736;DHT22;4404;49.308;12.178;2023-12-20T05:25:29;12.50;89.00
8736;DHT22;4404;49.308;12.178;2023-12-20T05:27:31;12.50;89.10
8736;DHT22;4404;49.308;12.178;2023-12-20T05:29:33;12.50;89.10
8736;DHT22;4404;49.308;12.178;2023-12-20T05:31:35;12.50;88.90
8736;DHT22;4404;49.308;12.178;2023-12-20T05:33:37;12.50;89.10
8736;DHT22;4404;49.308;12.178;2023-12-20T05:35:38;12.50;88.90
8736;DHT22;4404;49.308;12.178;2023-12-20T05:37:41;12.50;88.90
8736;DHT22;4404;49.308;12.178;2023-12-20T05:39:43;12.50;88.90
8736;DHT22;4404;49.308;12.178;2023-12-20T05:41:45;12.50;89.00
8736;DHT22;4404;49.308;12.178;2023-12-20T05:43:46;12.50;88.90
8736;DHT22;4404;49.308;12.178;2023-12-20T05:45:48;12.50;89.00
8736;DHT22;4404;49.308;12.178;2023-12-20T05:47:50;12.50;89.10
8736;DHT22;4404;49.308;12.178;2023-12-20T05:49:52;12.50;89.00
8736;DHT22;4404;49.308;12.178;2023-12-20T05:51:54;12.50;89.00
8736;DHT22;4404;49.308;12.178;2023-12-20T05:53:58;12.50;89.00
8736;DHT22;4404;49.308;12.178;2023-12-20T05:56:00;12.50;89.00
8736;DHT22;4404;49.308;12.178;2023-12-20T05:58:03;12.50;89.10
8736;DHT22;4404;49.308;12.178;2023-12-20T06:00:07;12.50;89.00
8736;DHT22;4404;49.308;12.178;2023-12-20T06:02:10;12.50;89.70
8736;DHT22;4404;49.308;12.178;2023-12-20T06:04:12;12.50;89.10
8736;DHT22;4404;49.308;12.178;2023-12-20T06:06:14;12.50;89.20
8736;DHT22;4404;49.308;12.178;2023-12-20T06:08:16;12.50;89.10
8736;DHT22;4404;49.308;12.178;2023-12-20T06:10:19;12.50;89.10
8736;DHT22;4404;49.308;12.178;2023-12-20T06:12:22;12.50;89.20
8736;DHT22;4404;49.308;12.178;2023-12-20T06:14:23;12.50;89.10
8736;DHT22;4404;49.308;12.178;2023-12-20T06:16:25;12.50;89.10
8736;DHT22;4404;49.308;12.178;2023-12-20T06:18:27;12.50;89.20
8736;DHT22;4404;49.308;12.178;2023-12-20T06:20:29;12.50;89.20
8736;DHT22;4404;49.308;12.178;2023-12-20T06:22:31;12.50;89.10
8736;DHT22;4404;49.308;12.178;2023-12-20T06:24:33;12.50;89.10
8736;DHT22;4404;49.308;12.178;2023-12-20T06:26:35;12.50;89.10
8736;DHT22;4404;49.308;12.178;2023-12-20T06:28:37;12.50;89.20
8736;DHT22;4404;49.308;12.178;2023-12-20T06:30:39;12.50;89.20
8736;DHT22;4404;49.308;12.178;2023-12-20T06:32:41;12.50;89.30
8736;DHT22;4404;49.308;12.178;2023-12-20T06:34:43;12.50;89.20
8736;DHT22;4404;49.308;12.178;2023-12-20T06:36:45;12.50;89.20
8736;DHT22;4404;49.308;12.178;2023-12-20T06:38:47;12.50;89.10
8736;DHT22;4404;49.308;12.178;2023-12-20T06:40:49;12.50;89.30
8736;DHT22;4404;49.308;12.178;2023-12-20T06:42:53;12.50;89.40
8736;DHT22;4404;49.308;12.178;2023-12-20T06:44:55;12.50;89.30
8736;DHT22;4404;49.308;12.178;2023-12-20T06:46:57;12.50;89.20
8736;DHT22;4404;49.308;12.178;2023-12-20T06:48:59;12.50;89.30
8736;DHT22;4404;49.308;12.178;2023-12-20T06:51:01;12.50;89.80
8736;DHT22;4404;49.308;12.178;2023-12-20T06:53:03;12.50;89.20
8736;DHT22;4404;49.308;12.178;2023-12-20T06:55:07;12.50;89.20
8736;DHT22;4404;49.308;12.178;2023-12-20T06:57:09;12.50;89.20
8736;DHT22;4404;49.308;12.178;2023-12-20T06:59:13;12.50;89.30
8736;DHT22;4404;49.308;12.178;2023-12-20T07:01:15;12.50;89.30
8736;DHT22;4404;49.308;12.178;2023-12-20T07:03:17;12.50;89.20
8736;DHT22;4404;49.308;12.178;2023-12-20T07:05:20;12.50;89.30
8736;DHT22;4404;49.308;12.178;2023-12-20T07:07:22;12.50;89.20
8736;DHT22;4404;49.308;12.178;2023-12-20T07:09:24;12.50;89.10
8736;DHT22;4404;49.308;12.178;2023-12-20T07:11:26;12.50;89.20
8736;DHT22;4404;49.308;12.178;2023-12-20T07:13:29;12.50;89.30
8736;DHT22;4404;49.308;12.178;2023-12-20T07:15:33;12.50;89.30
8736;DHT22;4404;49.308;12.178;2023-12-20T07:17:36;12.50;89.30
8736;DHT22;4404;49.308;12.178;2023-12-20T07:19:38;12.50;89.30
8736;DHT22;4404;49.308;12.178;2023-12-20T07:21:40;12.50;89.30
8736;DHT22;4404;49.308;12.178;2023-12-20T07:23:42;12.50;89.20
8736;DHT22;4404;49.308;12.178;2023-12-20T07:25:44;12.50;89.30
8736;DHT22;4404;49.308;12.178;2023-12-20T07:27:46;12.50;89.40
8736;DHT22;4404;49.308;12.178;2023-12-20T07:29:48;12.50;89.30
8736;DHT22;4404;49.308;12.178;2023-12-20T07:31:52;12.50;89.30
8736;DHT22;4404;49.308;12.178;2023-12-20T07:33:54;12.50;89.40
8736;DHT22;4404;49.308;12.178;2023-12-20T07:35:56;12.50;89.40
8736;DHT22;4404;49.308;12.178;2023-12-20T07:37:58;12.50;90.00
8736;DHT22;4404;49.308;12.178;2023-12-20T07:40:00;12.50;89.50
8736;DHT22;4404;49.308;12.178;2023-12-20T07:42:01;12.50;89.50
8736;DHT22;4404;49.308;12.178;2023-12-20T07:44:04;12.50;89.50
8736;DHT22;4404;49.308;12.178;2023-12-20T07:46:07;12.50;89.50
8736;DHT22;4404;49.308;12.178;2023-12-20T07:48:10;12.50;89.50
8736;DHT22;4404;49.308;12.178;2023-12-20T07:50:12;12.50;89.50
8736;DHT22;4404;49.308;12.178;2023-12-20T07:52:14;12.50;89.50
8736;DHT22;4404;49.308;12.178;2023-12-20T07:54:16;12.50;89.40
8736;DHT22;4404;49.308;12.178;2023-12-20T07:56:18;12.50;89.50
8736;DHT22;4404;49.308;12.178;2023-12-20T07:58:21;12.50;89.50
8736;DHT22;4404;49.308;12.178;2023-12-20T08:00:23;12.50;89.40
8736;DHT22;4404;49.308;12.178;2023-12-20T08:02:24;12.50;89.50
8736;DHT22;4404;49.308;12.178;2023-12-20T08:04:27;12.50;89.50
8736;DHT22;4404;49.308;12.178;2023-12-20T08:06:29;12.50;89.60
8736;DHT22;4404;49.308;12.178;2023-12-20T08:08:31;12.50;89.50
8736;DHT22;4404;49.308;12.178;2023-12-20T08:10:33;12.50;89.50
8736;DHT22;4404;49.308;12.178;2023-12-20T08:12:35;12.50;90.00
8736;DHT22;4404;49.308;12.178;2023-12-20T08:14:36;12.50;89.50
8736;DHT22;4404;49.308;12.178;2023-12-20T08:16:38;12.50;89.50
8736;DHT22;4404;49.308;12.178;2023-12-20T08:18:40;12.50;89.60
8736;DHT22;4404;49.308;12.178;2023-12-20T08:20:43;12.50;89.60
8736;DHT22;4404;49.308;12.178;2023-12-20T08:22:44;12.50;89.60
8736;DHT22;4404;49.308;12.178;2023-12-20T08:24:46;12.50;89.60
8736;DHT22;4404;49.308;12.178;2023-12-20T08:26:48;12.50;89.70
8736;DHT22;4404;49.308;12.178;2023-12-20T08:28:50;12.50;89.70
8736;DHT22;4404;49.308;12.178;2023-12-20T08:30:52;12.50;89.60
8736;DHT22;4404;49.308;12.178;2023-12-20T08:32:54;12.50;89.60
8736;DHT22;4404;49.308;12.178;2023-12-20T08:34:55;12.60;89.80
8736;DHT22;4404;49.308;12.178;2023-12-20T08:36:58;12.50;89.80
8736;DHT22;4404;49.308;12.178;2023-12-20T08:39:01;12.50;89.80
8736;DHT22;4404;49.308;12.178;2023-12-20T08:41:04;12.50;89.80
8736;DHT22;4404;49.308;12.178;2023-12-20T08:43:06;12.50;89.80
8736;DHT22;4404;49.308;12.178;2023-12-20T08:45:08;12.50;89.80
8736;DHT22;4404;49.308;12.178;2023-12-20T08:47:11;12.50;89.80
8736;DHT22;4404;49.308;12.178;2023-12-20T08:49:16;12.50;89.80
8736;DHT22;4404;49.308;12.178;2023-12-20T08:51:18;12.50;89.80
8736;DHT22;4404;49.308;12.178;2023-12-20T08:53:23;12.50;89.80
8736;DHT22;4404;49.308;12.178;2023-12-20T08:55:25;12.50;89.80
8736;DHT22;4404;49.308;12.178;2023-12-20T08:57:28;12.60;90.00
8736;DHT22;4404;49.308;12.178;2023-12-20T08:59:32;12.60;90.00
8736;DHT22;4404;49.308;12.178;2023-12-20T09:01:34;12.50;89.80
8736;DHT22;4404;49.308;12.178;2023-12-20T09:03:36;12.60;90.00
8736;DHT22;4404;49.308;12.178;2023-12-20T09:05:38;12.50;89.80
8736;DHT22;4404;49.308;12.178;2023-12-20T09:07:39;12.60;90.00
8736;DHT22;4404;49.308;12.178;2023-12-20T09:09:42;12.60;90.00
8736;DHT22;4404;49.308;12.178;2023-12-20T09:11:43;12.60;90.00
8736;DHT22;4404;49.308;12.178;2023-12-20T09:13:46;12.60;90.00
8736;DHT22;4404;49.308;12.178;2023-12-20T09:15:48;12.60;90.00
8736;DHT22;4404;49.308;12.178;2023-12-20T09:17:51;12.60;90.00
8736;DHT22;4404;49.308;12.178;2023-12-20T09:19:56;12.60;90.00
8736;DHT22;4404;49.308;12.178;2023-12-20T09:22:00;12.60;90.00
8736;DHT22;4404;49.308;12.178;2023-12-20T09:24:03;12.60;90.00
8736;DHT22;4404;49.308;12.178;2023-12-20T09:26:06;12.60;90.00
8736;DHT22;4404;49.308;12.178;2023-12-20T09:28:09;12.60;90.00
8736;DHT22;4404;49.308;12.178;2023-12-20T09:30:11;12.60;90.10
8736;DHT22;4404;49.308;12.178;2023-12-20T09:32:13;12.60;90.00
8736;DHT22;4404;49.308;12.178;2023-12-20T09:34:15;12.60;90.10
8736;DHT22;4404;49.308;12.178;2023-12-20T09:36:17;12.60;90.00
8736;DHT22;4404;49.308;12.178;2023-12-20T09:38:19;12.60;90.20
8736;DHT22;4404;49.308;12.178;2023-12-20T09:40:20;12.60;90.20
8736;DHT22;4404;49.308;12.178;2023-12-20T09:42:37;12.60;90.20
8736;DHT22;4404;49.308;12.178;2023-12-20T09:44:40;12.60;90.10
8736;DHT22;4404;49.308;12.178;2023-12-20T09:46:49;12.60;90.20
8736;DHT22;4404;49.308;12.178;2023-12-20T09:48:51;12.60;90.20
8736;DHT22;4404;49.308;12.178;2023-12-20T09:50:55;12.60;90.20
8736;DHT22;4404;49.308;12.178;2023-12-20T09:52:58;12.60;90.30
8736;DHT22;4404;49.308;12.178;2023-12-20T09:55:01;12.60;90.30
8736;DHT22;4404;49.308;12.178;2023-12-20T09:57:06;12.60;90.20
8736;DHT22;4404;49.308;12.178;2023-12-20T09:59:09;12.60;90.20
8736;DHT22;4404;49.308;12.178;2023-12-20T10:01:11;12.60;90.40
8736;DHT22;4404;49.308;12.178;2023-12-20T10:03:14;12.60;90.30
8736;DHT22;4404;49.308;12.178;2023-12-20T10:05:17;12.60;90.40
8736;DHT22;4404;49.308;12.178;2023-12-20T10:07:20;12.60;90.40
8736;DHT22;4404;49.308;12.178;2023-12-20T10:09:22;12.60;90.30
8736;DHT22;4404;49.308;12.178;2023-12-20T10:11:25;12.60;90.40
8736;DHT22;4404;49.308;12.178;2023-12-20T10:13:28;12.60;90.30
8736;DHT22;4404;49.308;12.178;2023-12-20T10:15:32;12.60;90.30
8736;DHT22;4404;49.308;12.178;2023-12-20T10:17:34;12.60;90.30
8736;DHT22;4404;49.308;12.178;2023-12-20T10:19:37;12.60;90.30
8736;DHT22;4404;49.308;12.178;2023-12-20T10:21:41;12.80;90.60
8736;DHT22;4404;49.308;12.178;2023-12-20T10:23:43;12.60;90.60
8736;DHT22;4404;49.308;12.178;2023-12-20T10:25:56;12.70;90.60
8736;DHT22;4404;49.308;12.178;2023-12-20T10:28:12;12.70;90.50
8736;DHT22;4404;49.308;12.178;2023-12-20T10:30:14;12.70;90.60
8736;DHT22;4404;49.308;12.178;2023-12-20T10:32:26;12.70;90.50
8736;DHT22;4404;49.308;12.178;2023-12-20T10:34:28;12.70;90.60
8736;DHT22;4404;49.308;12.178;2023-12-20T10:36:32;12.70;90.40
8736;DHT22;4404;49.308;12.178;2023-12-20T10:38:36;12.70;90.40
8736;DHT22;4404;49.308;12.178;2023-12-20T10:40:38;12.70;90.40
8736;DHT22;4404;49.308;12.178;2023-12-20T10:42:40;12.70;90.50
8736;DHT22;4404;49.308;12.178;2023-12-20T10:44:43;12.70;90.40
8736;DHT22;4404;49.308;12.178;2023-12-20T10:46:45;12.70;90.40
8736;DHT22;4404;49.308;12.178;2023-12-20T10:48:53;12.70;90.60
8736;DHT22;4404;49.308;12.178;2023-12-20T10:50:56;12.80;90.50
8736;DHT22;4404;49.308;12.178;2023-12-20T10:52:58;12.80;90.50
8736;DHT22;4404;49.308;12.178;2023-12-20T10:55:00;12.80;90.40
8736;DHT22;4404;49.308;12.178;2023-12-20T10:57:04;12.90;90.30
8736;DHT22;4404;49.308;12.178;2023-12-20T10:59:08;12.90;90.10
8736;DHT22;4404;49.308;12.178;2023-12-20T11:01:13;12.90;90.10
8736;DHT22;4404;49.308;12.178;2023-12-20T11:03:18;13.10;90.20
8736;DHT22;4404;49.308;12.178;2023-12-20T11:05:30;13.00;90.10
8736;DHT22;4404;49.308;12.178;2023-12-20T11:07:43;12.90;90.10
8736;DHT22;4404;49.308;12.178;2023-12-20T11:09:56;12.90;90.00
8736;DHT22;4404;49.308;12.178;2023-12-20T11:12:06;12.90;90.00
8736;DHT22;4404;49.308;12.178;2023-12-20T11:14:15;12.90;90.00
8736;DHT22;4404;49.308;12.178;2023-12-20T11:16:20;12.90;90.00
8736;DHT22;4404;49.308;12.178;2023-12-20T11:18:28;12.90;89.70
8736;DHT22;4404;49.308;12.178;2023-12-20T11:20:37;12.90;89.70
8736;DHT22;4404;49.308;12.178;2023-12-20T11:22:40;12.90;89.80
8736;DHT22;4404;49.308;12.178;2023-12-20T11:24:53;12.90;90.10
8736;DHT22;4404;49.308;12.178;2023-12-20T11:26:57;12.90;89.70
8736;DHT22;4404;49.308;12.178;2023-12-20T11:29:32;12.90;89.70
8736;DHT22;4404;49.308;12.178;2023-12-20T11:31:40;12.90;89.60
8736;DHT22;4404;49.308;12.178;2023-12-20T11:33:42;12.90;89.70
8736;DHT22;4404;49.308;12.178;2023-12-20T11:35:46;12.80;89.60
8736;DHT22;4404;49.308;12.178;2023-12-20T11:37:48;12.80;89.70
8736;DHT22;4404;49.308;12.178;2023-12-20T11:39:54;12.80;89.70
8736;DHT22;4404;49.308;12.178;2023-12-20T11:41:57;12.90;89.70
8736;DHT22;4404;49.308;12.178;2023-12-20T11:43:59;12.80;89.60
8736;DHT22;4404;49.308;12.178;2023-12-20T11:46:05;12.80;89.30
8736;DHT22;4404;49.308;12.178;2023-12-20T11:48:07;12.80;89.10
8736;DHT22;4404;49.308;12.178;2023-12-20T11:50:09;12.80;89.20
8736;DHT22;4404;49.308;12.178;2023-12-20T11:52:13;12.80;89.10
8736;DHT22;4404;49.308;12.178;2023-12-20T11:54:16;12.80;89.20
8736;DHT22;4404;49.308;12.178;2023-12-20T11:56:18;12.80;89.10
8736;DHT22;4404;49.308;12.178;2023-12-20T11:58:20;12.80;88.90
8736;DHT22;4404;49.308;12.178;2023-12-20T12:00:22;12.80;89.00
8736;DHT22;4404;49.308;12.178;2023-12-20T12:02:24;12.70;88.90
8736;DHT22;4404;49.308;12.178;2023-12-20T12:04:25;12.70;88.90
8736;DHT22;4404;49.308;12.178;2023-12-20T12:06:27;12.70;88.90
8736;DHT22;4404;49.308;12.178;2023-12-20T12:08:30;12.70;88.90
8736;DHT22;4404;49.308;12.178;2023-12-20T12:10:32;12.70;88.90
8736;DHT22;4404;49.308;12.178;2023-12-20T12:12:33;12.70;88.80
8736;DHT22;4404;49.308;12.178;2023-12-20T12:14:35;12.70;88.80
8736;DHT22;4404;49.308;12.178;2023-12-20T12:16:37;12.70;88.80
8736;DHT22;4404;49.308;12.178;2023-12-20T12:18:39;12.70;88.70
8736;DHT22;4404;49.308;12.178;2023-12-20T12:20:42;12.70;88.70
8736;DHT22;4404;49.308;12.178;2023-12-20T12:22:44;12.80;88.70
8736;DHT22;4404;49.308;12.178;2023-12-20T12:24:49;12.70;88.60
8736;DHT22;4404;49.308;12.178;2023-12-20T12:26:51;12.70;88.70
8736;DHT22;4404;49.308;12.178;2023-12-20T12:28:53;12.70;88.70
8736;DHT22;4404;49.308;12.178;2023-12-20T12:30:59;12.70;88.70
8736;DHT22;4404;49.308;12.178;2023-12-20T12:33:01;12.60;88.70
8736;DHT22;4404;49.308;12.178;2023-12-20T12:35:03;12.70;88.80
8736;DHT22;4404;49.308;12.178;2023-12-20T12:37:06;12.70;88.90
8736;DHT22;4404;49.308;12.178;2023-12-20T12:39:08;12.70;88.90
8736;DHT22;4404;49.308;12.178;2023-12-20T12:41:14;12.60;88.70
8736;DHT22;4404;49.308;12.178;2023-12-20T12:43:17;12.70;88.80
8736;DHT22;4404;49.308;12.178;2023-12-20T12:45:19;12.70;88.60
8736;DHT22;4404;49.308;12.178;2023-12-20T12:47:21;12.70;88.60
8736;DHT22;4404;49.308;12.178;2023-12-20T12:49:23;12.70;88.70
8736;DHT22;4404;49.308;12.178;2023-12-20T12:51:25;12.70;88.70
8736;DHT22;4404;49.308;12.178;2023-12-20T12:53:26;12.60;88.60
8736;DHT22;4404;49.308;12.178;2023-12-20T12:55:28;12.70;88.70
8736;DHT22;4404;49.308;12.178;2023-12-20T12:57:32;12.70;88.60
8736;DHT22;4404;49.308;12.178;2023-12-20T12:59:34;12.70;88.50
8736;DHT22;4404;49.308;12.178;2023-12-20T13:01:36;12.70;88.60
8736;DHT22;4404;49.308;12.178;2023-12-20T13:03:39;12.70;88.60
8736;DHT22;4404;49.308;12.178;2023-12-20T13:05:41;12.70;88.40
8736;DHT22;4404;49.308;12.178;2023-12-20T13:07:43;12.70;88.40